Tiempo atmosférico en la estación meteorológica de Barx, València/Valencia (340 m.)



Fecha
DESCASC
Temp. máxima en grados centígrados (hora)
DESCASC
Temp. mínima en grados centígrados (hora)
DESCASC
Temp. media en grados centígrados
DESCASC
Racha de viento máxima en m/sg (hora)
DESCASC
Velocidad máxima media en intervalos de 10 minutos(hora)
DESCASC
Precipitaciones diarias en mm
DESCASC
Precipitaciones de 00:00 a 06:00 en mm
DESCASC
Precipitaciones de 06:00 a 12:00 en mm
DESCASC
Precipitaciones de 12:00 a 18:00 en mm
DESCASC
Precipitaciones de 18:00 a 24:00 en mm
DESCASC
31-05-2020 27.4 (15:50) 14.2 (04:30) 20.8 9.44 (18:00) 5.83 (17:50) 0 0 0 0 0
30-05-2020 26.6 (19:10) 12.2 (05:40) 19.4 10.83 (16:50) 6.11 (16:10) 0 0 0 0 0
28-05-2020 24.9 (15:10) 16.1 (00:00) 20.5 9.44 (18:30) 4.44 (18:10) 0 0 0 0 0
27-05-2020 24 (15:50) 11.9 (05:30) 17.9 9.17 (14:50) 5 (15:00) 0 0 0 0 0
26-05-2020 24.1 (18:10) 13.6 (00:00) 18.9 6.94 (15:20) 3.61 (15:20) 0 0 0 0 0
25-05-2020 22.3 (11:40) 12.4 (00:00) 17.3 6.67 (18:00) 3.61 (18:10) 0 0 0 0 0
24-05-2020 23.5 (16:00) 14.7 (02:50) 19.1 6.39 (15:30) 3.61 (17:20) 0 0 0 0 0
23-05-2020 31 (17:00) 14.4 (00:00) 22.7 7.78 (16:10) 4.44 (15:50) 0 0 0 0 0
22-05-2020 30.5 (15:40) 16.1 (00:00) 23.3 5.83 (17:10) 3.06 (13:20) 0 0 0 0 0
21-05-2020 29.9 (16:40) 14.3 (00:00) 22.1 8.33 (15:00) 5 (17:50) 0 0 0 0 0
20-05-2020 29.6 (14:50) 14.5 (00:00) 22.1 8.06 (17:10) 5 (17:20) 0 0 0 0 0
19-05-2020 29.6 (16:20) 11.3 (05:20) 20.5 7.78 (17:20) 3.89 (19:30) 0 0 0 0 0
18-05-2020 26.5 (16:30) 12.1 (00:00) 19.3 7.78 (19:00) 4.44 (18:40) 0 0 0 0 0
17-05-2020 22.9 (16:50) 12.3 (00:00) 17.6 6.11 (14:00) 3.06 (14:10) 0 0 0 0 0
16-05-2020 18.1 (17:40) 12.7 (00:00) 15.4 10 (11:20) 3.89 (11:20) 25.6 0 9 16.6 0
15-05-2020 18.6 (14:00) 9.1 (07:00) 13.9 6.39 (14:20) 3.06 (12:40) 1 0 0 0 1
14-05-2020 17.7 (18:40) 11.5 (00:00) 14.6 8.89 (16:00) 4.17 (14:50) 27.2 0 26.8 0.4 0
13-05-2020 23.5 (18:00) 12.1 (00:00) 17.8 9.17 (05:40) 3.89 (10:00) 0 0 0 0 0
12-05-2020 21.4 (13:50) 14.9 (23:59) 18.1 9.44 (14:00) 4.17 (16:00) 0.8 0 0 0 0.8
11-05-2020 24.6 (16:30) 14.8 (00:00) 19.7 11.11 (15:40) 6.11 (13:10) 0 0 0 0 0
10-05-2020 22.5 (15:40) 13.5 (00:00) 18 12.5 (14:50) 6.94 (12:50) 1.6 0.4 1.2 0 0
09-05-2020 25.3 (14:50) 12.9 (07:30) 19.1 9.17 (17:00) 5.28 (17:20) 0 0 0 0 0
08-05-2020 21.6 (17:10) 13.9 (00:00) 17.8 7.78 (08:00) 3.61 (12:50) 0 0 0 0 0
07-05-2020 23.7 (14:50) 12.3 (00:00) 18 7.5 (13:00) 4.44 (14:20) 0 0 0 0 0
06-05-2020 27.6 (14:30) 13.9 (00:00) 20.8 7.78 (17:10) 5 (16:00) 0 0 0 0 0
05-05-2020 28.7 (16:50) 13.1 (00:00) 20.9 6.67 (16:20) 3.89 (16:10) 0 0 0 0 0
04-05-2020 26.4 (17:20) 12.7 (00:00) 19.5 8.61 (18:10) 4.17 (18:20) 0 0 0 0 0
03-05-2020 27.4 (15:20) 14.7 (06:40) 21 9.17 (16:50) 5.28 (17:00) 0 0 0 0 0

Gráficas

Temp. máximas Temp. mínimas Temp. medias Precipitaciones Rachas de viento máximas Velocidades máximas media en intervalos de 10 minutos

Datos horarios

Fecha y hora oficial Temperatura (ºC) Velocidad del viento (km/h) Dirección del viento Racha (km/h) Dirección de racha Precipitación (mm) Presión (hPa) Tendencia (hPa) Humedad (%)
2020-06-01 23:00:00 19.2 4 Nordeste 12 Noroeste 0 -- -- 91
2020-06-01 22:00:00 20.2 8 Noroeste 14 Noroeste 0 -- -- 83
2020-06-01 21:00:00 22.7 3 Norte 14 Norte 0 -- -- 70
2020-06-01 20:00:00 25.9 4 Nordeste 26 Sur 0 -- -- 53
2020-06-01 19:00:00 26.5 14 Sur 28 Sur 0 -- -- 48
2020-06-01 18:00:00 26.4 18 Sur 33 Sur 0 -- -- 49
2020-06-01 17:00:00 26.4 21 Sur 36 Sur 0 -- -- 46
2020-06-01 16:00:00 26.5 21 Sur 34 Sur 0 -- -- 58
2020-06-01 15:00:00 27.1 17 Sur 30 Sur 0 -- -- 59
2020-06-01 14:00:00 26.4 15 Sur 27 Sur 0 -- -- 62
2020-06-01 13:00:00 25.5 8 Sur 21 Norte 0 -- -- 64
2020-06-01 12:00:00 23.9 8 Norte 17 Nordeste 0 -- -- 69
2020-06-01 11:00:00 21.9 5 Norte 15 Sur 0 -- -- 74
2020-06-01 10:00:00 20.6 2 Nordeste 5 Norte 0 -- -- 75
2020-06-01 09:00:00 18.4 2 Noroeste 6 Sur 0 -- -- 88
2020-06-01 08:00:00 16 4 Sur 10 Sur 0 -- -- 96
2020-06-01 07:00:00 15 0 Calma 7 Sur 0 -- -- 94
2020-06-01 06:00:00 15.6 0 Calma 9 Sur 0 -- -- 91
2020-06-01 05:00:00 16.4 3 Sur 6 Sur 0 -- -- 91
2020-06-01 04:00:00 17.5 3 Sudeste 5 Norte 0 -- -- 88
2020-06-01 03:00:00 18.6 0 Calma 6 Nordeste 0 -- -- 86
2020-06-01 02:00:00 18.6 0 Calma 21 Este 0 -- -- 85
2020-06-01 01:00:00 18.4 6 Nordeste 16 Norte 0 -- -- 87
2020-06-01 00:00:00 18.5 8 Nordeste 20 Nordeste 0 -- -- 90
2020-05-31 23:00:00 18.4 6 Noroeste 17 Noroeste 0 -- -- 90
2020-05-31 22:00:00 19.7 4 Noroeste 17 Noroeste 0 -- -- 80
2020-05-31 21:00:00 22.4 3 Norte 11 Norte 0 -- -- 67
2020-05-31 20:00:00 25 5 Norte 15 Sudeste 0 -- -- 55
2020-05-31 19:00:00 26.9 10 Sur 33 Sur 0 -- -- 43
2020-05-31 18:00:00 25.1 19 Sur 34 Sudoeste 0 -- -- 51
2020-05-31 17:00:00 26.8 19 Sur 32 Sur 0 -- -- 47
2020-05-31 16:00:00 27.4 17 Sur 33 Sur 0 -- -- 45
2020-05-31 15:00:00 26.1 15 Sudeste 28 Sur 0 -- -- 53
2020-05-31 14:00:00 25.7 19 Sudeste 30 Sur 0 -- -- 58
2020-05-31 13:00:00 26.2 10 Sudeste 19 Sudeste 0 -- -- 58
2020-05-31 12:00:00 24.4 6 Sur 13 Sudeste 0 -- -- 59
2020-05-31 11:00:00 21.7 3 Este 8 Nordeste 0 -- -- 72
2020-05-31 10:00:00 19 3 Norte 6 Nordeste 0 -- -- 82
2020-05-31 09:00:00 16.2 3 Este 4 Este 0 -- -- 98
2020-05-31 08:00:00 14.3 0 Calma 7 Sur 0 -- -- 96
2020-05-31 07:00:00 14.2 4 Sur 8 Sudeste 0 -- -- 95
2020-05-31 06:00:00 14.4 3 Sur 5 Sudeste 0 -- -- 95
2020-05-31 05:00:00 14.4 3 Sur 6 Sudeste 0 -- -- 96
2020-05-31 04:00:00 14.3 0 Calma 2 Sur 0 -- -- 94
2020-05-31 03:00:00 14.9 0 Calma 3 Nordeste 0 -- -- 90
2020-05-31 02:00:00 16.1 0 Calma 8 Nordeste 0 -- -- 89
2020-05-31 01:00:00 16.9 0 Calma 9 Nordeste 0 -- -- 88
2020-05-31 00:00:00 17.5 4 Nordeste 12 Noroeste 0 -- -- 87
2020-05-30 23:00:00 18.4 3 Nordeste 13 Noroeste 0 -- -- 84
2020-05-30 22:00:00 19.8 5 Nordeste 16 Noroeste 0 -- -- 75
2020-05-30 21:00:00 21.6 0 Calma 15 Nordeste 0 -- -- 66
2020-05-30 20:00:00 23.3 10 Norte 22 Sudeste 0 -- -- 58
2020-05-30 19:00:00 26.5 10 Sur 27 Sur 0 -- -- 48
2020-05-30 18:00:00 25.7 17 Sur 33 Sur 0 -- -- 50
2020-05-30 17:00:00 25.2 20 Sur 39 Sur 0 -- -- 50
2020-05-30 16:00:00 25 21 Sur 37 Sudeste 0 -- -- 53
2020-05-30 15:00:00 25.1 19 Sur 32 Sudeste 0 -- -- 55
2020-05-30 14:00:00 25.7 15 Sur 26 Sur 0 -- -- 54
2020-05-30 13:00:00 24.6 6 Sudeste 32 Sudeste 0 -- -- 52
2020-05-30 12:00:00 22.4 9 Nordeste 19 Nordeste 0 -- -- 61
2020-05-30 11:00:00 21.3 8 Nordeste 13 Norte 0 -- -- 62
2020-05-30 10:00:00 19.4 4 Nordeste 10 Norte 0 -- -- 77
2020-05-30 09:00:00 15.9 0 Calma 4 Norte 0 -- -- 89
2020-05-30 08:00:00 13 0 Calma 7 Sur 0 -- -- 89
2020-05-30 07:00:00 12.6 5 Sur 8 Sur 0 -- -- 88
2020-05-30 06:00:00 12.3 0 Calma 9 Sur 0 -- -- 87
2020-05-30 05:00:00 12.5 0 Calma 6 Sur 0 -- -- 84
2020-05-30 04:00:00 14 2 Oeste 6 Sur 0 -- -- 73
2020-05-30 03:00:00 16.3 6 Sur 16 Sudeste 0 -- -- 63
2020-05-30 02:00:00 18.1 11 Sur 29 Sur 0 -- -- 58
2020-05-30 01:00:00 19.2 15 Sur 34 Sur 0 -- -- 46
2020-05-30 00:00:00 20.4 13 Sur 31 Sur 0 -- -- 42
2020-05-29 23:00:00 21.5 21 Sur 33 Sur 0 -- -- 39
2020-05-29 22:00:00 22.1 15 Sur 32 Sur 0 -- -- 41
2020-05-29 21:00:00 23.2 15 Sur 28 Sur 0 -- -- 44
2020-05-29 20:00:00 24.9 18 Sudeste 33 Sur 0 -- -- 44
2020-05-29 19:00:00 26 16 Sur 30 Sur 0 -- -- 45
2020-05-29 18:00:00 27 17 Sur 29 Sur 0 -- -- 42
2020-05-29 17:00:00 27.6 15 Sur 28 Sur 0 -- -- 42
2020-05-29 16:00:00 27.3 18 Sur 30 Sur 0 -- -- 43
2020-05-29 15:00:00 27.3 17 Sudeste 29 Sur 0 -- -- 42
2020-05-29 14:00:00 27.8 13 Sur 23 Sur 0 -- -- 43
2020-05-29 13:00:00 26.8 9 Sudeste 19 Sur 0 -- -- 45
2020-05-29 12:00:00 25.1 7 Sudeste 18 Sudeste 0 -- -- 44
2020-05-29 11:00:00 22.2 5 Norte 10 Oeste 0 -- -- 61
2020-05-29 10:00:00 19.8 3 Noroeste 8 Oeste 0 -- -- 70
2020-05-29 09:00:00 16 2 Este 6 Nordeste 0 -- -- 91
2020-05-29 08:00:00 12.1 0 Calma 7 Sudeste 0 -- -- 95
2020-05-29 07:00:00 11.6 5 Sur 8 Sur 0 -- -- 91
2020-05-29 06:00:00 11.6 4 Sur 7 Sur 0 -- -- 90
2020-05-29 05:00:00 12.4 4 Sur 9 Sur 0 -- -- 90
2020-05-29 04:00:00 12.9 5 Sur 8 Sur 0 -- -- 90
2020-05-29 03:00:00 13.5 4 Sur 8 Sudeste 0 -- -- 88
2020-05-29 02:00:00 14.5 4 Sur 10 Sur 0 -- -- 90
2020-05-29 01:00:00 15.2 4 Sur 11 Sur 0 -- -- 87
2020-05-29 00:00:00 16.1 6 Sur 12 Sur 0 -- -- 89
2020-05-28 23:00:00 17.2 8 Sur 17 Sur 0 -- -- 86
2020-05-28 22:00:00 18.1 10 Sur 21 Sur 0 -- -- 83
2020-05-28 21:00:00 19.3 4 Nordeste 15 Sur 0 -- -- 71
2020-05-28 20:00:00 21.7 8 Sur 30 Sur 0 -- -- 61
2020-05-28 19:00:00 23.1 15 Sur 34 Sur 0 -- -- 59
2020-05-28 18:00:00 23.9 13 Sur 27 Sur 0 -- -- 58
2020-05-28 17:00:00 23.1 9 Este 31 Nordeste 0 -- -- 61
2020-05-28 16:00:00 24.4 8 Nordeste 22 Nordeste 0 -- -- 56
2020-05-28 15:00:00 24.7 7 Sudoeste 22 Nordeste 0 -- -- 52
2020-05-28 14:00:00 22.8 7 Nordeste 25 Norte 0 -- -- 59
2020-05-28 13:00:00 21.5 13 Nordeste 22 Nordeste 0 -- -- 67
2020-05-28 12:00:00 19.6 14 Norte 28 Norte 0 -- -- 75
2020-05-28 11:00:00 19.3 9 Nordeste 20 Nordeste 0 -- -- 79
2020-05-28 10:00:00 18.3 6 Norte 16 Nordeste 0 -- -- 89
2020-05-28 09:00:00 17.9 4 Norte 18 Nordeste 0 -- -- 92
2020-05-28 08:00:00 17.4 8 Norte 13 Nordeste 0 -- -- 95
2020-05-28 07:00:00 17.2 6 Noroeste 13 Norte 0 -- -- 95
2020-05-28 06:00:00 17.1 3 Noroeste 17 Norte 0 -- -- 94
2020-05-28 05:00:00 17.2 5 Norte 15 Norte 0 -- -- 94
2020-05-28 04:00:00 17 5 Norte 11 Sudeste 0 -- -- 94
2020-05-28 03:00:00 16.6 4 Este 9 Sudeste 0 -- -- 93
2020-05-28 02:00:00 16.6 4 Este 7 Este 0 -- -- 91
2020-05-28 01:00:00 17.4 2 Noroeste 8 Sudeste 0 -- -- 89
2020-05-28 00:00:00 17.6 4 Nordeste 10 Norte 0 -- -- 90
2020-05-27 23:00:00 17.7 3 Este 10 Norte 0 -- -- 88
2020-05-27 22:00:00 17.9 5 Norte 15 Norte 0 -- -- 89
2020-05-27 21:00:00 18.5 3 Nordeste 22 Norte 0 -- -- 84
2020-05-27 20:00:00 19.4 11 Nordeste 25 Nordeste 0 -- -- 80
2020-05-27 19:00:00 20.1 10 Nordeste 24 Norte 0 -- -- 74
2020-05-27 18:00:00 21.2 13 Nordeste 28 Nordeste 0 -- -- 71
2020-05-27 17:00:00 22.9 9 Este 26 Nordeste 0 -- -- 66
2020-05-27 16:00:00 23.6 9 Nordeste 32 Nordeste 0 -- -- 61
2020-05-27 15:00:00 23.7 18 Norte 33 Nordeste 0 -- -- 56
2020-05-27 14:00:00 23.8 16 Norte 30 Norte 0 -- -- 55
2020-05-27 13:00:00 23.7 15 Norte 26 Nordeste 0 -- -- 51
2020-05-27 12:00:00 23.4 13 Nordeste 26 Norte 0 -- -- 52
2020-05-27 11:00:00 22.3 10 Norte 17 Norte 0 -- -- 61
2020-05-27 10:00:00 20.5 5 Norte 9 Norte 0 -- -- 66
2020-05-27 09:00:00 16.2 0 Calma 5 Este 0 -- -- 95
2020-05-27 08:00:00 14.1 2 Norte 6 Nordeste 0 -- -- 99
2020-05-27 07:00:00 12 0 Calma 5 Sur 0 -- -- 96
2020-05-27 06:00:00 12.1 3 Sur 6 Sur 0 -- -- 96
2020-05-27 05:00:00 12.1 3 Sur 4 Sudeste 0 -- -- 95
2020-05-27 04:00:00 12.5 3 Sudeste 4 Sur 0 -- -- 93
2020-05-27 03:00:00 13.1 0 Calma 5 Sur 0 -- -- 92
2020-05-27 02:00:00 13.6 3 Sur 7 Sur 0 -- -- 90
2020-05-27 01:00:00 14 0 Calma 6 Sur 0 -- -- 88
2020-05-27 00:00:00 14.7 3 Sur 7 Sur 0 -- -- 87
2020-05-26 23:00:00 15.8 4 Sur 6 Sur 0 -- -- 82
2020-05-26 22:00:00 17.7 0 Calma 10 Sur 0 -- -- 76
2020-05-26 21:00:00 20.3 5 Sur 15 Sur 0 -- -- 66
2020-05-26 20:00:00 22.5 5 Sudoeste 17 Nordeste 0 -- -- 57
2020-05-26 19:00:00 22.8 5 Nordeste 19 Sudeste 0 -- -- 58
2020-05-26 18:00:00 24 6 Sudeste 22 Este 0 -- -- 55
2020-05-26 17:00:00 23.4 8 Nordeste 24 Nordeste 0 -- -- 60
2020-05-26 16:00:00 23.7 10 Nordeste 25 Nordeste 0 -- -- 58
2020-05-26 15:00:00 23.5 12 Nordeste 24 Norte 0 -- -- 61
2020-05-26 14:00:00 23.1 11 Norte 21 Norte 0 -- -- 64
2020-05-26 13:00:00 22.2 7 Norte 17 Norte 0 -- -- 72
2020-05-26 12:00:00 20.7 7 Nordeste 13 Norte 0 -- -- 76
2020-05-26 11:00:00 19.4 6 Norte 13 Oeste 0 -- -- 84
2020-05-26 10:00:00 17.5 12 Oeste 16 Oeste 0 -- -- 93
2020-05-26 09:00:00 16.8 6 Noroeste 12 Noroeste 0 -- -- 95
2020-05-26 08:00:00 15.3 0 Calma 5 Sur 0 -- -- 94
2020-05-26 07:00:00 14.6 3 Nordeste 8 Norte 0 -- -- 96
2020-05-26 06:00:00 13.7 2 Sur 6 Sur 0 -- -- 95
2020-05-26 05:00:00 13.6 3 Sur 7 Sudeste 0 -- -- 96
2020-05-26 04:00:00 14.2 2 Sur 10 Sur 0 -- -- 94
2020-05-26 03:00:00 15.2 7 Sur 10 Sur 0 -- -- 93
2020-05-26 02:00:00 16 3 Nordeste 8 Este 0 -- -- 92
2020-05-26 01:00:00 16 2 Nordeste 9 Sur 0 -- -- 91
2020-05-26 00:00:00 16.9 4 Sur 20 Sudeste 0 -- -- 88
2020-05-25 23:00:00 17.6 10 Sur 18 Sur 0 -- -- 85
2020-05-25 22:00:00 18.1 6 Sur 15 Sudeste 0 -- -- 84
2020-05-25 21:00:00 19.5 4 Sudeste 13 Sudeste 0 -- -- 72
2020-05-25 20:00:00 19.6 2 Norte 11 Sur 0 -- -- 80
2020-05-25 19:00:00 19.5 6 Sudoeste 22 Sudeste 0 -- -- 80
2020-05-25 18:00:00 19.9 12 Sur 24 Sudeste 0 -- -- 74
2020-05-25 17:00:00 21.4 8 Sudeste 15 Sur 0 -- -- 59
2020-05-25 16:00:00 20.9 8 Norte 18 Norte 0 -- -- 70
2020-05-25 15:00:00 20.6 9 Norte 21 Norte 0 -- -- 68
2020-05-25 14:00:00 21.1 5 Norte 15 Noroeste 0 -- -- 61
2020-05-25 13:00:00 21 4 Norte 19 Este 0 -- -- 62
2020-05-25 12:00:00 21.6 7 Norte 18 Nordeste 0 -- -- 68
2020-05-25 11:00:00 20.1 8 Nordeste 17 Nordeste 0 -- -- 76
2020-05-25 10:00:00 18.6 7 Nordeste 14 Norte 0 -- -- 84
2020-05-25 09:00:00 15.4 0 Calma 4 Sur 0 -- -- 89
2020-05-25 08:00:00 13.1 0 Calma 6 Sur 0 -- -- 97
2020-05-25 07:00:00 12.5 3 Sur 8 Sur 0 -- -- 96
2020-05-25 06:00:00 12.7 3 Sur 7 Sur 0 -- -- 96
2020-05-25 05:00:00 13 3 Sur 6 Sur 0 -- -- 96
2020-05-25 04:00:00 13.5 3 Sur 8 Sur 0 -- -- 95
2020-05-25 03:00:00 13.5 2 Sur 6 Sudeste 0 -- -- 94
2020-05-25 02:00:00 14.3 0 Calma 8 Sur 0 -- -- 92
2020-05-25 01:00:00 14.9 2 Sur 6 Sur 0 -- -- 91
2020-05-25 00:00:00 15.8 0 Calma 5 Sur 0 -- -- 89
2020-05-24 23:00:00 16.7 2 Norte 14 Sur 0 -- -- 88
2020-05-24 22:00:00 17.7 3 Noroeste 14 Sur 0 -- -- 84
2020-05-24 21:00:00 19 3 Sudeste 16 Sur 0 -- -- 79
2020-05-24 20:00:00 20.6 9 Sur 21 Sur 0 -- -- 74
2020-05-24 19:00:00 21.5 9 Sur 19 Sur 0 -- -- 73
2020-05-24 18:00:00 21.3 8 Este 22 Norte 0 -- -- 73
2020-05-24 17:00:00 23 8 Nordeste 19 Este 0 -- -- 69
2020-05-24 16:00:00 23.5 9 Sur 23 Este 0 -- -- 70
2020-05-24 15:00:00 21.7 11 Nordeste 18 Nordeste 0 -- -- 76
2020-05-24 14:00:00 21.3 10 Nordeste 17 Nordeste 0 -- -- 76
2020-05-24 13:00:00 20 11 Nordeste 20 Nordeste 0 -- -- 83
2020-05-24 12:00:00 20 9 Nordeste 15 Nordeste 0 -- -- 84
2020-05-24 11:00:00 19.6 6 Norte 13 Norte 0 -- -- 88
2020-05-24 10:00:00 19.4 5 Nordeste 15 Sudeste 0 -- -- 87
2020-05-24 09:00:00 18.8 5 Norte 20 Nordeste 0 -- -- 91
2020-05-24 08:00:00 18.4 6 Norte 15 Norte 0 -- -- 94
2020-05-24 07:00:00 18.2 6 Norte 13 Norte 0 -- -- 95
2020-05-24 06:00:00 18.2 6 Norte 17 Norte 0 -- -- 95
2020-05-24 05:00:00 18.3 6 Norte 13 Noroeste 0 -- -- 94
2020-05-24 04:00:00 17.7 6 Norte 14 Noroeste 0 -- -- 98
2020-05-24 03:00:00 14.7 2 Oeste 5 Oeste 0 -- -- 95
2020-05-24 02:00:00 15.3 0 Calma 5 Sudoeste 0 -- -- 90
2020-05-24 01:00:00 16.4 0 Calma 7 Sudoeste 0 -- -- 90
2020-05-24 00:00:00 17.4 3 Norte 7 Sudoeste 0 -- -- 88
2020-05-23 23:00:00 18.6 3 Norte 9 Noroeste 0 -- -- 84
2020-05-23 22:00:00 20.2 4 Noroeste 13 Noroeste 0 -- -- 79
2020-05-23 21:00:00 22.5 9 Noroeste 14 Norte 0 -- -- 68
2020-05-23 20:00:00 26.2 8 Norte 13 Norte 0 -- -- 51
2020-05-23 19:00:00 28.2 4 Norte 19 Sudeste 0 -- -- 48
2020-05-23 18:00:00 30.5 12 Sur 21 Sudeste 0 -- -- 38
2020-05-23 17:00:00 31 8 Sudeste 28 Sudeste 0 -- -- 37
2020-05-23 16:00:00 30.5 15 Sur 27 Sur 0 -- -- 45
2020-05-23 15:00:00 29.5 6 Sudeste 21 Sur 0 -- -- 45
2020-05-23 14:00:00 26.7 8 Norte 21 Nordeste 0 -- -- 63
2020-05-23 13:00:00 26.2 9 Nordeste 16 Nordeste 0 -- -- 62
2020-05-23 12:00:00 25.4 8 Norte 14 Norte 0 -- -- 63
2020-05-23 11:00:00 24.1 5 Norte 14 Nordeste 0 -- -- 64
2020-05-23 10:00:00 22.2 3 Norte 10 Norte 0 -- -- 63
2020-05-23 09:00:00 17.3 0 Calma 4 Sudeste 0 -- -- 84
2020-05-23 08:00:00 15.4 3 Sur 9 Sur 0 -- -- 89
2020-05-23 07:00:00 14.7 6 Sur 9 Sur 0 -- -- 90
2020-05-23 06:00:00 14.5 3 Sur 6 Sudeste 0 -- -- 91
2020-05-23 05:00:00 15.2 0 Calma 11 Sur 0 -- -- 90
2020-05-23 04:00:00 15.7 0 Calma 6 Sur 0 -- -- 90
2020-05-23 03:00:00 16.7 0 Calma 5 Norte 0 -- -- 90
2020-05-23 02:00:00 17.8 0 Calma 9 Nordeste 0 -- -- 89
2020-05-23 01:00:00 18.5 3 Nordeste 10 Nordeste 0 -- -- 91
2020-05-23 00:00:00 19.1 4 Nordeste 12 Noroeste 0 -- -- 89
2020-05-22 23:00:00 20.3 9 Norte 13 Norte 0 -- -- 83
2020-05-22 22:00:00 21.6 5 Norte 12 Norte 0 -- -- 75
2020-05-22 21:00:00 24.2 4 Norte 8 Nordeste 0 -- -- 59
2020-05-22 20:00:00 27.6 3 Noroeste 13 Norte 0 -- -- 56
2020-05-22 19:00:00 28.6 5 Noroeste 19 Sudeste 0 -- -- 50
2020-05-22 18:00:00 28.5 5 Norte 21 Sur 0 -- -- 52
2020-05-22 17:00:00 28.9 6 Nordeste 15 Nordeste 0 -- -- 51
2020-05-22 16:00:00 28.9 5 Norte 19 Sudeste 0 -- -- 54
2020-05-22 15:00:00 29.1 5 Norte 18 Sudeste 0 -- -- 53
2020-05-22 14:00:00 27.5 9 Nordeste 17 Norte 0 -- -- 56
2020-05-22 13:00:00 27.5 9 Nordeste 14 Nordeste 0 -- -- 55
2020-05-22 12:00:00 26 8 Norte 14 Norte 0 -- -- 59
2020-05-22 11:00:00 24.7 8 Norte 13 Norte 0 -- -- 59
2020-05-22 10:00:00 23.2 2 Norte 9 Norte 0 -- -- 59
2020-05-22 09:00:00 18.1 0 Calma 5 Sur 0 -- -- 85
2020-05-22 08:00:00 16.6 3 Sur 13 Sur 0 -- -- 86
2020-05-22 07:00:00 16.4 5 Sur 12 Sur 0 -- -- 78
2020-05-22 06:00:00 16.5 7 Sur 9 Sur 0 -- -- 81
2020-05-22 05:00:00 16.3 3 Sur 9 Sur 0 -- -- 84
2020-05-22 04:00:00 16.8 5 Sur 9 Sur 0 -- -- 83
2020-05-22 03:00:00 16.8 4 Sur 9 Sur 0 -- -- 86
2020-05-22 02:00:00 17.2 0 Calma 4 Sudeste 0 -- -- 87
2020-05-22 01:00:00 18.6 0 Calma 7 Noroeste 0 -- -- 82
2020-05-22 00:00:00 19.9 2 Noroeste 8 Noroeste 0 -- -- 78
2020-05-21 23:00:00 20.3 3 Noroeste 9 Noroeste 0 -- -- 81
2020-05-21 22:00:00 21.5 4 Norte 12 Norte 0 -- -- 81
2020-05-21 21:00:00 25.2 2 Nordeste 13 Noroeste 0 -- -- 65
2020-05-21 20:00:00 29.4 8 Sudoeste 26 Sur 0 -- -- 49
2020-05-21 19:00:00 29.9 13 Sur 26 Sur 0 -- -- 44
2020-05-21 18:00:00 29.6 16 Sur 28 Sur 0 -- -- 41
2020-05-21 17:00:00 29.9 14 Sur 30 Sur 0 -- -- 43
2020-05-21 16:00:00 29.7 13 Sudeste 30 Sur 0 -- -- 44
2020-05-21 15:00:00 29.2 18 Sur 30 Sur 0 -- -- 46
2020-05-21 14:00:00 29 7 Sudeste 17 Sudeste 0 -- -- 50
2020-05-21 13:00:00 26.5 8 Nordeste 16 Nordeste 0 -- -- 60
2020-05-21 12:00:00 25.4 6 Norte 12 Norte 0 -- -- 58
2020-05-21 11:00:00 23.5 4 Nordeste 15 Noroeste 0 -- -- 59
2020-05-21 10:00:00 21.8 3 Norte 6 Nordeste 0 -- -- 64
2020-05-21 09:00:00 16.9 0 Calma 7 Sur 0 -- -- 85
2020-05-21 08:00:00 15.1 4 Sudeste 8 Sur 0 -- -- 89
2020-05-21 07:00:00 14.4 4 Sur 9 Sur 0 -- -- 87
2020-05-21 06:00:00 14.4 3 Sur 9 Sur 0 -- -- 90
2020-05-21 05:00:00 15 0 Calma 6 Sur 0 -- -- 89
2020-05-21 04:00:00 16 4 Sur 8 Sur 0 -- -- 90
2020-05-21 03:00:00 17.2 0 Calma 9 Norte 0 -- -- 87
2020-05-21 02:00:00 17.4 2 Nordeste 8 Nordeste 0 -- -- 90
2020-05-21 01:00:00 18.4 5 Norte 12 Norte 0 -- -- 87
2020-05-21 00:00:00 18.5 6 Norte 15 Norte 0 -- -- 90
2020-05-20 23:00:00 18.9 4 Nordeste 11 Noroeste 0 -- -- 89
2020-05-20 22:00:00 20.2 2 Norte 8 Oeste 0 -- -- 82
2020-05-20 21:00:00 22.3 2 Sudeste 15 Sur 0 -- -- 69
2020-05-20 20:00:00 26.1 6 Sur 15 Sudoeste 0 -- -- 52
2020-05-20 19:00:00 28.4 12 Sudeste 26 Sur 0 -- -- 42
2020-05-20 18:00:00 28.5 13 Sur 29 Sur 0 -- -- 42
2020-05-20 17:00:00 29 15 Sur 28 Sudeste 0 -- -- 44
2020-05-20 16:00:00 29.3 16 Sur 26 Sur 0 -- -- 43
2020-05-20 15:00:00 29.5 13 Sur 21 Sur 0 -- -- 46
2020-05-20 14:00:00 27 5 Norte 16 Norte 0 -- -- 55
2020-05-20 13:00:00 26.3 8 Nordeste 15 Norte 0 -- -- 53
2020-05-20 12:00:00 25.6 6 Nordeste 12 Nordeste 0 -- -- 54
2020-05-20 11:00:00 23.7 7 Nordeste 12 Nordeste 0 -- -- 58
2020-05-20 10:00:00 21.9 5 Noroeste 9 Oeste 0 -- -- 62
2020-05-20 09:00:00 17.5 2 Nordeste 6 Noroeste 0 -- -- 78
2020-05-20 08:00:00 15.1 4 Sudeste 9 Sudeste 0 -- -- 87
2020-05-20 07:00:00 14.7 3 Sur 9 Sudeste 0 -- -- 87
2020-05-20 06:00:00 15.1 6 Sur 12 Sur 0 -- -- 84
2020-05-20 05:00:00 14.9 3 Sudeste 10 Sur 0 -- -- 86
2020-05-20 04:00:00 15.1 6 Sur 12 Sur 0 -- -- 85
2020-05-20 03:00:00 14.6 4 Sur 6 Sur 0 -- -- 87
2020-05-20 02:00:00 15.7 2 Sur 6 Sudeste 0 -- -- 84
2020-05-20 01:00:00 16.7 3 Sur 7 Sudeste 0 -- -- 77
2020-05-20 00:00:00 18.4 5 Sur 8 Este 0 -- -- 73
2020-05-19 23:00:00 18.5 3 Sudoeste 9 Sur 0 -- -- 72
2020-05-19 22:00:00 20.7 0 Calma 14 Sur 0 -- -- 68
2020-05-19 21:00:00 24.9 6 Sur 21 Sur 0 -- -- 48
2020-05-19 20:00:00 27.2 11 Sur 22 Sur 0 -- -- 43
2020-05-19 19:00:00 28.3 11 Sur 23 Sur 0 -- -- 42
2020-05-19 18:00:00 28.6 14 Sur 28 Sur 0 -- -- 42
2020-05-19 17:00:00 29.1 12 Sur 22 Sur 0 -- -- 43
2020-05-19 16:00:00 28.6 6 Este 18 Nordeste 0 -- -- 46
2020-05-19 15:00:00 28.3 6 Nordeste 18 Nordeste 0 -- -- 46
2020-05-19 14:00:00 26.8 7 Nordeste 18 Norte 0 -- -- 49
2020-05-19 13:00:00 26.2 6 Norte 20 Noroeste 0 -- -- 47
2020-05-19 12:00:00 25.6 7 Nordeste 17 Oeste 0 -- -- 49
2020-05-19 11:00:00 23.4 4 Nordeste 8 Este 0 -- -- 52
2020-05-19 10:00:00 20.4 2 Oeste 11 Noroeste 0 -- -- 67
2020-05-19 09:00:00 15.9 4 Oeste 10 Oeste 0 -- -- 87
2020-05-19 08:00:00 12.8 4 Sur 11 Sur 0 -- -- 85
2020-05-19 07:00:00 12.1 3 Sur 12 Sur 0 -- -- 84
2020-05-19 06:00:00 11.9 6 Sur 9 Sur 0 -- -- 84
2020-05-19 05:00:00 11.5 2 Sur 7 Sur 0 -- -- 90
2020-05-19 04:00:00 12.1 4 Sur 8 Sur 0 -- -- 83
2020-05-19 03:00:00 12.5 4 Sur 8 Sur 0 -- -- 85
2020-05-19 02:00:00 13.7 2 Sur 10 Sur 0 -- -- 79
2020-05-19 01:00:00 14.4 6 Sur 9 Sudeste 0 -- -- 78
2020-05-19 00:00:00 15.3 3 Sur 10 Noroeste 0 -- -- 79
2020-05-18 23:00:00 16.1 3 Norte 6 Sur 0 -- -- 79
2020-05-18 22:00:00 18.6 3 Sur 12 Sur 0 -- -- 63
2020-05-18 21:00:00 21.1 9 Sur 23 Sur 0 -- -- 54
2020-05-18 20:00:00 23.2 16 Sur 26 Sur 0 -- -- 49
2020-05-18 19:00:00 24.8 13 Sur 28 Sur 0 -- -- 52
2020-05-18 18:00:00 25.7 14 Sur 26 Sur 0 -- -- 51
2020-05-18 17:00:00 25.4 4 Nordeste 17 Nordeste 0 -- -- 53
2020-05-18 16:00:00 24.6 12 Norte 18 Norte 0 -- -- 55
2020-05-18 15:00:00 24.7 9 Norte 18 Nordeste 0 -- -- 53
2020-05-18 14:00:00 25 4 Sudeste 17 Norte 0 -- -- 57
2020-05-18 13:00:00 23.4 7 Norte 15 Norte 0 -- -- 55
2020-05-18 12:00:00 22.6 6 Noroeste 14 Noroeste 0 -- -- 55
2020-05-18 11:00:00 20.9 7 Noroeste 17 Norte 0 -- -- 63
2020-05-18 10:00:00 19 7 Noroeste 13 Norte 0 -- -- 65
2020-05-18 09:00:00 14.9 2 Noroeste 8 Noroeste 0 -- -- 87
2020-05-18 08:00:00 13.8 2 Noroeste 8 Oeste 0 -- -- 88
2020-05-18 07:00:00 12.2 0 Calma 6 Sudeste 0 -- -- 94
2020-05-18 06:00:00 13.1 4 Sur 8 Sur 0 -- -- 90
2020-05-18 05:00:00 13.3 5 Sur 8 Sudeste 0 -- -- 90
2020-05-18 04:00:00 14 3 Sur 7 Sur 0 -- -- 88
2020-05-18 03:00:00 14.7 4 Sur 9 Sur 0 -- -- 83
2020-05-18 02:00:00 15.3 5 Sur 11 Sur 0 -- -- 79
2020-05-18 01:00:00 15.2 3 Sur 10 Este 0 -- -- 83
2020-05-18 00:00:00 15.8 5 Sur 10 Sur 0 -- -- 80
2020-05-17 23:00:00 16.2 2 Sur 7 Sur 0 -- -- 83
2020-05-17 22:00:00 16.6 5 Sur 10 Sudeste 0 -- -- 86
2020-05-17 21:00:00 18.3 3 Sur 8 Noroeste 0 -- -- 82
2020-05-17 20:00:00 20.9 5 Noroeste 13 Norte 0 -- -- 71
2020-05-17 19:00:00 21.7 6 Norte 15 Sur 0 -- -- 62
2020-05-17 18:00:00 22.6 10 Sur 17 Sur 0 -- -- 58
2020-05-17 17:00:00 22.8 10 Sur 19 Sur 0 -- -- 57
2020-05-17 16:00:00 22.1 7 Sudoeste 18 Nordeste 0 -- -- 59
2020-05-17 15:00:00 22 9 Sur 21 Sur 0 -- -- 64
2020-05-17 14:00:00 20.6 9 Sudeste 22 Sur 0 -- -- 70
2020-05-17 13:00:00 19 5 Este 17 Nordeste 0 -- -- 79
2020-05-17 12:00:00 19.3 4 Sudeste 16 Nordeste 0 -- -- 72
2020-05-17 11:00:00 16.9 4 Norte 12 Sur 0 -- -- 81
2020-05-17 10:00:00 16.3 0 Calma 12 Nordeste 0 -- -- 83
2020-05-17 09:00:00 14.9 2 Norte 7 Noroeste 0 -- -- 94
2020-05-17 08:00:00 12.8 0 Calma 4 Sur 0 -- -- 99
2020-05-17 07:00:00 12.4 3 Sur 5 Sur 0 -- -- 98
2020-05-17 06:00:00 12.6 4 Sur 12 Sudoeste 0 -- -- 97
2020-05-17 05:00:00 13.1 2 Nordeste 5 Norte 0 -- -- 98
2020-05-17 04:00:00 13.1 0 Calma 6 Sur 0 -- -- 97
2020-05-17 03:00:00 13.3 3 Sur 5 Sudeste 0 -- -- 95
2020-05-17 02:00:00 13.5 2 Sur 6 Sur 0 -- -- 94
2020-05-17 01:00:00 13.5 4 Sur 10 Sur 0 -- -- 96
2020-05-17 00:00:00 13.7 5 Sur 7 Sudeste 0 -- -- 95
2020-05-16 23:00:00 14 4 Sur 8 Sudeste 0 -- -- 94
2020-05-16 22:00:00 14.6 2 Sur 6 Sur 0 -- -- 93
2020-05-16 21:00:00 15.6 2 Sur 12 Sudeste 0 -- -- 89
2020-05-16 20:00:00 16.9 5 Sur 14 Sur 0 -- -- 83
2020-05-16 19:00:00 17.1 6 Sur 12 Sur 0 -- -- 84
2020-05-16 18:00:00 17.6 6 Norte 13 Norte 0 -- -- 80
2020-05-16 17:00:00 17.7 4 Norte 9 Noroeste 0 -- -- 77
2020-05-16 16:00:00 15.8 5 Noroeste 7 Sudoeste 0 -- -- 86
2020-05-16 15:00:00 13.3 4 Sur 8 Sudeste 2 -- -- 95
2020-05-16 14:00:00 12.7 2 Sur 17 Sur 12.6 -- -- 97
2020-05-16 13:00:00 13.5 9 Sur 19 Norte 2 -- -- 93
2020-05-16 12:00:00 14.5 8 Noroeste 36 Nordeste 0 -- -- 93
2020-05-16 11:00:00 14.2 10 Norte 22 Nordeste 0 -- -- 97
2020-05-16 10:00:00 14.2 9 Norte 28 Nordeste 0 -- -- 97
2020-05-16 09:00:00 13.9 3 Noroeste 17 Nordeste 8 -- -- 98
2020-05-16 08:00:00 14 4 Noroeste 24 Norte 1 -- -- 98
2020-05-16 07:00:00 14.2 7 Norte 20 Nordeste 0 -- -- 97
2020-05-16 06:00:00 13.9 3 Sudoeste 10 Oeste 0 -- -- 98
2020-05-16 05:00:00 13.8 2 Noroeste 7 Oeste 0 -- -- 98
2020-05-16 04:00:00 13.7 3 Noroeste 12 Noroeste 0 -- -- 97
2020-05-16 03:00:00 13.4 4 Noroeste 8 Noroeste 0 -- -- 96
2020-05-16 02:00:00 13.1 0 Calma 3 Norte 0 -- -- 97
2020-05-16 01:00:00 13 0 Calma 4 Sudoeste 0 -- -- 97
2020-05-16 00:00:00 13.1 0 Calma 5 Sur 0 -- -- 95
2020-05-15 23:00:00 13.4 2 Sur 5 Sur 0 -- -- 94
2020-05-15 22:00:00 13.9 3 Sur 8 Sudoeste 0 -- -- 93
2020-05-15 21:00:00 14.7 3 Sudoeste 9 Sudeste 0 -- -- 91
2020-05-15 20:00:00 15.2 2 Sudeste 12 Norte 1 -- -- 92
2020-05-15 19:00:00 15.7 6 Nordeste 9 Norte 0 -- -- 89
2020-05-15 18:00:00 16.2 4 Norte 9 Nordeste 0 -- -- 78
2020-05-15 17:00:00 16.7 3 Norte 13 Este 0 -- -- 74
2020-05-15 16:00:00 17 4 Sudoeste 23 Nordeste 0 -- -- 74
2020-05-15 15:00:00 17.2 9 Nordeste 23 Norte 0 -- -- 74
2020-05-15 14:00:00 18.6 7 Sudeste 17 Sudeste 0 -- -- 62
2020-05-15 13:00:00 17.8 11 Norte 21 Norte 0 -- -- 61
2020-05-15 12:00:00 17.6 6 Nordeste 13 Nordeste 0 -- -- 63
2020-05-15 11:00:00 16.9 5 Nordeste 13 Oeste 0 -- -- 65
2020-05-15 10:00:00 16.7 5 Nordeste 14 Oeste 0 -- -- 65
2020-05-15 09:00:00 14.6 3 Noroeste 12 Este 0 -- -- 75
2020-05-15 08:00:00 11.6 2 Este 10 Este 0 -- -- 88
2020-05-15 07:00:00 9.1 0 Calma 5 Noroeste 0 -- -- 95
2020-05-15 06:00:00 9.9 2 Sudoeste 6 Nordeste 0 -- -- 92
2020-05-15 05:00:00 11.2 2 Noroeste 8 Nordeste 0 -- -- 87
2020-05-15 04:00:00 12.2 4 Sudoeste 8 Oeste 0 -- -- 79
2020-05-15 03:00:00 11.8 3 Sur 10 Sur 0 -- -- 82
2020-05-15 02:00:00 11.7 2 Sudeste 6 Sur 0 -- -- 85
2020-05-15 01:00:00 12.1 4 Sur 9 Sur 0 -- -- 84
2020-05-15 00:00:00 12.9 4 Sur 12 Sur 0 -- -- 82
2020-05-14 23:00:00 13.6 5 Sur 11 Sudoeste 0 -- -- 76
2020-05-14 22:00:00 14.5 4 Este 10 Este 0 -- -- 73
2020-05-14 21:00:00 15.2 4 Sur 10 Sudoeste 0 -- -- 68
2020-05-14 20:00:00 16.2 3 Nordeste 20 Noroeste 0 -- -- 67
2020-05-14 19:00:00 17.1 7 Norte 21 Noroeste 0 -- -- 60
2020-05-14 18:00:00 17.5 7 Norte 22 Norte 0 -- -- 62
2020-05-14 17:00:00 16.3 7 Noroeste 29 Noroeste 0 -- -- 65
2020-05-14 16:00:00 15.8 10 Noroeste 32 Noroeste 0 -- -- 69
2020-05-14 15:00:00 14.7 14 Noroeste 32 Oeste 0.2 -- -- 81
2020-05-14 14:00:00 12.3 9 Noroeste 26 Noroeste 0 -- -- 90
2020-05-14 13:00:00 11.6 10 Noroeste 27 Noroeste 0.2 -- -- 87
2020-05-14 12:00:00 11.9 13 Noroeste 32 Noroeste 0.2 -- -- 87
2020-05-14 11:00:00 11.8 11 Noroeste 30 Noroeste 2 -- -- 94
2020-05-14 10:00:00 11.7 9 Norte 26 Norte 16 -- -- 96
2020-05-14 09:00:00 12.1 15 Sudoeste 32 Oeste 6.2 -- -- 93
2020-05-14 08:00:00 13.6 8 Sudoeste 18 Oeste 2.2 -- -- 93
2020-05-14 07:00:00 14.3 5 Noroeste 15 Este 0.2 -- -- 92
2020-05-14 06:00:00 14 6 Noroeste 18 Noroeste 0 -- -- 83
2020-05-14 05:00:00 12.9 0 Calma 5 Sur 0 -- -- 87
2020-05-14 04:00:00 12.7 2 Este 5 Norte 0 -- -- 87
2020-05-14 03:00:00 12.8 2 Sudoeste 6 Sur 0 -- -- 83
2020-05-14 02:00:00 14 3 Sur 9 Sur 0 -- -- 79
2020-05-14 01:00:00 15.5 4 Sur 14 Sudeste 0 -- -- 73
2020-05-14 00:00:00 17.4 9 Sudeste 15 Sudeste 0 -- -- 64
2020-05-13 23:00:00 16 6 Sur 13 Sudeste 0 -- -- 72
2020-05-13 22:00:00 18.6 8 Sudeste 19 Este 0 -- -- 63
2020-05-13 21:00:00 19.8 8 Sur 16 Sur 0 -- -- 59
2020-05-13 20:00:00 21.9 10 Sur 16 Sur 0 -- -- 51
2020-05-13 19:00:00 22.7 4 Noroeste 15 Noroeste 0 -- -- 45
2020-05-13 18:00:00 23.5 6 Oeste 18 Noroeste 0 -- -- 44
2020-05-13 17:00:00 22 5 Noroeste 17 Oeste 0 -- -- 48
2020-05-13 16:00:00 22.1 9 Norte 22 Noroeste 0 -- -- 45
2020-05-13 15:00:00 21.6 8 Noroeste 26 Noroeste 0 -- -- 51
2020-05-13 14:00:00 21.4 10 Oeste 24 Noroeste 0 -- -- 48
2020-05-13 13:00:00 21.2 8 Noroeste 22 Noroeste 0 -- -- 54
2020-05-13 12:00:00 19.6 10 Noroeste 25 Oeste 0 -- -- 56
2020-05-13 11:00:00 17.8 10 Norte 28 Oeste 0 -- -- 62
2020-05-13 10:00:00 16.2 14 Noroeste 27 Noroeste 0 -- -- 67
2020-05-13 09:00:00 14.7 12 Oeste 29 Oeste 0 -- -- 71
2020-05-13 08:00:00 12.3 11 Sudoeste 29 Oeste 0 -- -- 78
2020-05-13 07:00:00 12.4 11 Oeste 25 Oeste 0 -- -- 76
2020-05-13 06:00:00 12.2 13 Oeste 33 Oeste 0 -- -- 78
2020-05-13 05:00:00 12.6 6 Sudoeste 23 Noroeste 0 -- -- 79
2020-05-13 04:00:00 12.6 10 Oeste 21 Oeste 0 -- -- 80
2020-05-13 03:00:00 12.6 0 Calma 7 Oeste 0 -- -- 88
2020-05-13 02:00:00 13 0 Calma 12 Noroeste 0 -- -- 89
2020-05-13 01:00:00 13.2 4 Noroeste 24 Noroeste 0 -- -- 87
2020-05-13 00:00:00 14.9 13 Noroeste 23 Noroeste 0 -- -- 92
2020-05-12 23:00:00 15.4 4 Noroeste 10 Nordeste 0 -- -- 95
2020-05-12 22:00:00 15.5 5 Noroeste 13 Noroeste 0 -- -- 96
2020-05-12 21:00:00 15.6 3 Nordeste 9 Norte 0 -- -- 97
2020-05-12 20:00:00 15.8 5 Norte 10 Nordeste 0.4 -- -- 96
2020-05-12 19:00:00 16 4 Nordeste 26 Este 0.4 -- -- 92
2020-05-12 18:00:00 17 13 Este 24 Este 0 -- -- 76
2020-05-12 17:00:00 18.6 9 Nordeste 32 Norte 0 -- -- 63
2020-05-12 16:00:00 19.5 15 Norte 30 Norte 0 -- -- 66
2020-05-12 15:00:00 20.9 6 Este 31 Sudeste 0 -- -- 65
2020-05-12 14:00:00 20.8 12 Este 34 Este 0 -- -- 61
2020-05-12 13:00:00 20.3 14 Nordeste 30 Nordeste 0 -- -- 58
2020-05-12 12:00:00 21 9 Norte 20 Nordeste 0 -- -- 55
2020-05-12 11:00:00 20.6 9 Nordeste 17 Norte 0 -- -- 56
2020-05-12 10:00:00 19.4 3 Noroeste 8 Noroeste 0 -- -- 61
2020-05-12 09:00:00 16.2 2 Nordeste 8 Norte 0 -- -- 78
2020-05-12 08:00:00 15.6 3 Oeste 11 Este 0 -- -- 74
2020-05-12 07:00:00 15.8 4 Sur 10 Sudoeste 0 -- -- 67
2020-05-12 06:00:00 15.7 4 Sur 15 Sudoeste 0 -- -- 69
2020-05-12 05:00:00 15.9 7 Sudeste 13 Sudoeste 0 -- -- 68
2020-05-12 04:00:00 16.3 4 Sudeste 24 Sudoeste 0 -- -- 69
2020-05-12 03:00:00 16.8 9 Sudoeste 23 Sudoeste 0 -- -- 66
2020-05-12 02:00:00 16.8 8 Sudoeste 18 Sudoeste 0 -- -- 64
2020-05-12 01:00:00 18 5 Nordeste 18 Nordeste 0 -- -- 60
2020-05-12 00:00:00 18.2 7 Norte 13 Sudoeste 0 -- -- 60
2020-05-11 23:00:00 17.8 5 Sudoeste 13 Sur 0 -- -- 59
2020-05-11 22:00:00 19 4 Sudoeste 21 Noroeste 0 -- -- 56
2020-05-11 21:00:00 20.2 7 Noroeste 36 Oeste 0 -- -- 51
2020-05-11 20:00:00 20.9 14 Norte 32 Noroeste 0 -- -- 54
2020-05-11 19:00:00 23.1 18 Norte 30 Norte 0 -- -- 47
2020-05-11 18:00:00 23.2 13 Noroeste 31 Noroeste 0 -- -- 44
2020-05-11 17:00:00 23.3 10 Noroeste 31 Oeste 0 -- -- 42
2020-05-11 16:00:00 23.5 12 Noroeste 40 Noroeste 0 -- -- 44
2020-05-11 15:00:00 23.4 18 Noroeste 36 Noroeste 0 -- -- 43
2020-05-11 14:00:00 22.7 16 Noroeste 38 Noroeste 0 -- -- 44
2020-05-11 13:00:00 22.6 18 Noroeste 35 Noroeste 0 -- -- 46
2020-05-11 12:00:00 21.3 15 Noroeste 36 Noroeste 0 -- -- 49
2020-05-11 11:00:00 20.1 15 Noroeste 31 Noroeste 0 -- -- 53
2020-05-11 10:00:00 18.9 9 Noroeste 27 Noroeste 0 -- -- 56
2020-05-11 09:00:00 16.5 5 Oeste 28 Oeste 0 -- -- 66
2020-05-11 08:00:00 14.9 6 Sudoeste 28 Sudoeste 0 -- -- 71
2020-05-11 07:00:00 15.3 8 Norte 19 Norte 0 -- -- 68
2020-05-11 06:00:00 14.8 6 Norte 22 Norte 0 -- -- 70
2020-05-11 05:00:00 15.4 8 Oeste 27 Oeste 0 -- -- 66
2020-05-11 04:00:00 15 6 Noroeste 22 Sudoeste 0 -- -- 67
2020-05-11 03:00:00 15 7 Nordeste 23 Nordeste 0 -- -- 65
2020-05-11 02:00:00 15.5 6 Nordeste 31 Oeste 0 -- -- 62
2020-05-11 01:00:00 16.3 11 Noroeste 36 Oeste 0 -- -- 57
2020-05-11 00:00:00 16.7 12 Oeste 31 Oeste 0 -- -- 55
2020-05-10 23:00:00 17.2 11 Norte 36 Noroeste 0 -- -- 54
2020-05-10 22:00:00 18.1 15 Oeste 33 Noroeste 0 -- -- 52
2020-05-10 21:00:00 18.6 10 Noroeste 42 Noroeste 0 -- -- 50
2020-05-10 20:00:00 19.5 17 Noroeste 42 Noroeste 0 -- -- 47
2020-05-10 19:00:00 19.4 15 Noroeste 45 Oeste 0 -- -- 50
2020-05-10 18:00:00 21.6 13 Noroeste 39 Noroeste 0 -- -- 45
2020-05-10 17:00:00 21.5 18 Noroeste 38 Norte 0 -- -- 42
2020-05-10 16:00:00 21.8 19 Norte 39 Noroeste 0 -- -- 39
2020-05-10 15:00:00 22.1 18 Noroeste 45 Noroeste 0 -- -- 43
2020-05-10 14:00:00 21.6 17 Oeste 38 Norte 0 -- -- 49
2020-05-10 13:00:00 19.8 24 Noroeste 44 Noroeste 0 -- -- 53
2020-05-10 12:00:00 18.3 21 Noroeste 40 Noroeste 0.2 -- -- 66
2020-05-10 11:00:00 15 10 Oeste 26 Sudoeste 0 -- -- 80
2020-05-10 10:00:00 13.6 12 Sudoeste 24 Sudoeste 0.6 -- -- 86
2020-05-10 09:00:00 14.6 10 Norte 24 Norte 0.2 -- -- 84
2020-05-10 08:00:00 15 0 Calma 7 Nordeste 0.2 -- -- 88
2020-05-10 07:00:00 15.2 0 Calma 6 Norte 0 -- -- 91
2020-05-10 06:00:00 15.2 2 Norte 10 Noroeste 0 -- -- 96
2020-05-10 05:00:00 15.4 5 Noroeste 13 Noroeste 0 -- -- 98
2020-05-10 04:00:00 15.8 4 Sur 9 Sur 0 -- -- 98
2020-05-10 03:00:00 16.1 3 Sur 19 Oeste 0.4 -- -- 98
2020-05-10 02:00:00 16.8 5 Noroeste 10 Noroeste 0 -- -- 94
2020-05-10 01:00:00 17 0 Calma 8 Nordeste 0 -- -- 93
2020-05-10 00:00:00 17 4 Norte 10 Nordeste 0 -- -- 94
2020-05-09 23:00:00 17.3 6 Nordeste 11 Nordeste 0 -- -- 91
2020-05-09 22:00:00 17.2 6 Nordeste 14 Nordeste 0 -- -- 92
2020-05-09 21:00:00 17.2 9 Nordeste 20 Nordeste 0 -- -- 94
2020-05-09 20:00:00 17.8 10 Nordeste 27 Este 0 -- -- 91
2020-05-09 19:00:00 19 10 Norte 16 Norte 0 -- -- 86
2020-05-09 18:00:00 21.8 7 Oeste 31 Sur 0 -- -- 73
2020-05-09 17:00:00 22.8 19 Sur 33 Sur 0 -- -- 67
2020-05-09 16:00:00 23 16 Sur 31 Sudeste 0 -- -- 68
2020-05-09 15:00:00 25.1 14 Sur 24 Sur 0 -- -- 62
2020-05-09 14:00:00 22.9 12 Norte 21 Nordeste 0 -- -- 70
2020-05-09 13:00:00 24.6 8 Sur 18 Sur 0 -- -- 62
2020-05-09 12:00:00 22.7 8 Sudoeste 20 Sur 0 -- -- 65
2020-05-09 11:00:00 20.3 10 Sudeste 23 Sur 0 -- -- 75
2020-05-09 10:00:00 18.5 7 Sudeste 13 Sur 0 -- -- 82
2020-05-09 09:00:00 15.7 0 Calma 6 Sur 0 -- -- 93
2020-05-09 08:00:00 14.2 2 Este 5 Sudoeste 0 -- -- 99
2020-05-09 07:00:00 13.1 0 Calma 10 Sur 0 -- -- 96
2020-05-09 06:00:00 13.5 0 Calma 5 Oeste 0 -- -- 94
2020-05-09 05:00:00 14.2 2 Nordeste 6 Nordeste 0 -- -- 95
2020-05-09 04:00:00 14.2 5 Este 12 Sudoeste 0 -- -- 95
2020-05-09 03:00:00 13.1 3 Sudeste 5 Este 0 -- -- 96
2020-05-09 02:00:00 13.6 0 Calma 6 Noroeste 0 -- -- 91
2020-05-09 01:00:00 14.1 4 Sur 6 Sur 0 -- -- 87
2020-05-09 00:00:00 14.2 0 Calma 4 Sudoeste 0 -- -- 88
2020-05-08 23:00:00 15.9 2 Sudoeste 13 Sudeste 0 -- -- 82
2020-05-08 22:00:00 16.6 8 Este 14 Este 0 -- -- 82
2020-05-08 21:00:00 17.6 7 Este 18 Nordeste 0 -- -- 84
2020-05-08 20:00:00 18.7 11 Nordeste 20 Nordeste 0 -- -- 83
2020-05-08 19:00:00 21.6 5 Sudoeste 13 Sur 0 -- -- 68
2020-05-08 18:00:00 21.5 5 Sur 14 Sur 0 -- -- 71
2020-05-08 17:00:00 21.1 5 Sur 15 Sur 0 -- -- 70
2020-05-08 16:00:00 19.8 6 Nordeste 19 Norte 0 -- -- 73
2020-05-08 15:00:00 19.7 12 Norte 23 Nordeste 0 -- -- 75
2020-05-08 14:00:00 19.7 9 Nordeste 26 Norte 0 -- -- 73
2020-05-08 13:00:00 17.9 11 Norte 20 Nordeste 0 -- -- 83
2020-05-08 12:00:00 17.9 7 Norte 15 Norte 0 -- -- 84
2020-05-08 11:00:00 17.4 8 Norte 15 Norte 0 -- -- 86
2020-05-08 10:00:00 16.6 6 Nordeste 16 Nordeste 0 -- -- 92
2020-05-08 09:00:00 16.5 7 Nordeste 19 Norte 0 -- -- 91
2020-05-08 08:00:00 15.9 7 Sudeste 28 Sur 0 -- -- 92
2020-05-08 07:00:00 15.4 6 Oeste 17 Noroeste 0 -- -- 97
2020-05-08 06:00:00 16.1 3 Norte 16 Norte 0 -- -- 97
2020-05-08 05:00:00 16.2 5 Oeste 13 Sur 0 -- -- 94
2020-05-08 04:00:00 16.5 5 Norte 18 Norte 0 -- -- 95
2020-05-08 03:00:00 16.3 6 Norte 14 Nordeste 0 -- -- 95
2020-05-08 02:00:00 15.3 4 Norte 10 Norte 0 -- -- 97
2020-05-08 01:00:00 13.9 2 Sur 4 Oeste 0 -- -- 93
2020-05-08 00:00:00 14.7 0 Calma 4 Sudoeste 0 -- -- 89
2020-05-07 23:00:00 15.7 0 Calma 6 Este 0 -- -- 88
2020-05-07 22:00:00 17.2 0 Calma 13 Nordeste 0 -- -- 82
2020-05-07 21:00:00 18.6 3 Norte 12 Nordeste 0 -- -- 77
2020-05-07 20:00:00 18.9 6 Norte 14 Norte 0 -- -- 79
2020-05-07 19:00:00 20 9 Nordeste 15 Norte 0 -- -- 79
2020-05-07 18:00:00 22.1 7 Sudeste 26 Norte 0 -- -- 64
2020-05-07 17:00:00 23 8 Nordeste 24 Nordeste 0 -- -- 51
2020-05-07 16:00:00 22.7 12 Nordeste 26 Nordeste 0 -- -- 60
2020-05-07 15:00:00 23.7 6 Sudeste 27 Nordeste 0 -- -- 55
2020-05-07 14:00:00 22.4 11 Nordeste 27 Nordeste 0 -- -- 60
2020-05-07 13:00:00 22.3 12 Nordeste 27 Nordeste 0 -- -- 65
2020-05-07 12:00:00 20.9 10 Nordeste 18 Nordeste 0 -- -- 73
2020-05-07 11:00:00 19.7 8 Nordeste 14 Norte 0 -- -- 81
2020-05-07 10:00:00 18.3 7 Nordeste 13 Nordeste 0 -- -- 88
2020-05-07 09:00:00 15.2 0 Calma 4 Nordeste 0 -- -- 98
2020-05-07 08:00:00 13.2 0 Calma 8 Sudoeste 0 -- -- 96
2020-05-07 07:00:00 12.6 2 Sur 8 Sudoeste 0 -- -- 96
2020-05-07 06:00:00 12.5 2 Sur 6 Sur 0 -- -- 96
2020-05-07 05:00:00 12.7 2 Sur 5 Sur 0 -- -- 95
2020-05-07 04:00:00 13 3 Sur 6 Sur 0 -- -- 94
2020-05-07 03:00:00 13.4 0 Calma 4 Sur 0 -- -- 95
2020-05-07 02:00:00 14.2 4 Sur 8 Sur 0 -- -- 91
2020-05-07 01:00:00 14.3 0 Calma 4 Oeste 0 -- -- 90
2020-05-07 00:00:00 15.5 0 Calma 10 Sur 0 -- -- 88
2020-05-06 23:00:00 16.2 4 Sudeste 11 Sur 0 -- -- 87
2020-05-06 22:00:00 17.4 2 Sudoeste 6 Noroeste 0 -- -- 81
2020-05-06 21:00:00 18.9 3 Noroeste 13 Norte 0 -- -- 77
2020-05-06 20:00:00 20.4 6 Norte 20 Sur 0 -- -- 70
2020-05-06 19:00:00 24.1 12 Sur 22 Sur 0 -- -- 56
2020-05-06 18:00:00 24.4 15 Sur 28 Sur 0 -- -- 56
2020-05-06 17:00:00 25.2 15 Sur 28 Sur 0 -- -- 56
2020-05-06 16:00:00 26.2 18 Sur 27 Sur 0 -- -- 52
2020-05-06 15:00:00 27.5 13 Sur 24 Sur 0 -- -- 50
2020-05-06 14:00:00 25.7 8 Norte 22 Nordeste 0 -- -- 54
2020-05-06 13:00:00 24.3 10 Norte 19 Norte 0 -- -- 62
2020-05-06 12:00:00 23.5 7 Nordeste 15 Nordeste 0 -- -- 63
2020-05-06 11:00:00 22.9 4 Norte 12 Noroeste 0 -- -- 53
2020-05-06 10:00:00 20.7 8 Noroeste 14 Oeste 0 -- -- 71
2020-05-06 09:00:00 16.9 2 Norte 8 Noroeste 0 -- -- 83
2020-05-06 08:00:00 14.4 4 Sur 8 Sur 0 -- -- 89
2020-05-06 07:00:00 14.1 3 Sur 9 Sur 0 -- -- 90
2020-05-06 06:00:00 14.1 0 Calma 7 Sudeste 0 -- -- 91
2020-05-06 05:00:00 14.2 3 Sur 6 Sudeste 0 -- -- 91
2020-05-06 04:00:00 15.1 5 Sur 7 Sur 0 -- -- 91
2020-05-06 03:00:00 15.4 0 Calma 5 Nordeste 0 -- -- 91
2020-05-06 02:00:00 15.6 0 Calma 7 Norte 0 -- -- 90
2020-05-06 01:00:00 16 2 Sur 3 Sur 0 -- -- 88
2020-05-06 00:00:00 17.1 0 Calma 4 Noroeste 0 -- -- 85
2020-05-05 23:00:00 18.1 3 Sur 8 Sur 0 -- -- 82
2020-05-05 22:00:00 19.3 0 Calma 5 Norte 0 -- -- 78
2020-05-05 21:00:00 21 2 Nordeste 7 Norte 0 -- -- 70
2020-05-05 20:00:00 21.6 5 Norte 10 Noroeste 0 -- -- 67
2020-05-05 19:00:00 23.5 8 Noroeste 18 Sur 0 -- -- 62
2020-05-05 18:00:00 27.3 6 Sur 23 Sur 0 -- -- 49
2020-05-05 17:00:00 28.6 13 Sur 24 Sur 0 -- -- 45
2020-05-05 16:00:00 28.4 13 Sur 22 Sur 0 -- -- 47
2020-05-05 15:00:00 27.5 5 Nordeste 17 Nordeste 0 -- -- 56
2020-05-05 14:00:00 27 9 Nordeste 17 Norte 0 -- -- 50
2020-05-05 13:00:00 26.8 9 Norte 21 Nordeste 0 -- -- 46
2020-05-05 12:00:00 25.3 6 Norte 13 Nordeste 0 -- -- 48
2020-05-05 11:00:00 24.3 6 Norte 15 Oeste 0 -- -- 50
2020-05-05 10:00:00 22.7 8 Noroeste 15 Noroeste 0 -- -- 55
2020-05-05 09:00:00 17.9 2 Nordeste 8 Nordeste 0 -- -- 61
2020-05-05 08:00:00 16.9 0 Calma 9 Nordeste 0 -- -- 75
2020-05-05 07:00:00 14.3 3 Sur 8 Sur 0 -- -- 86
2020-05-05 06:00:00 14.5 5 Sur 17 Sur 0 -- -- 91
2020-05-05 05:00:00 13.1 0 Calma 6 Este 0 -- -- 96
2020-05-05 04:00:00 13.7 0 Calma 5 Sur 0 -- -- 94
2020-05-05 03:00:00 14.5 5 Sur 9 Sur 0 -- -- 93
2020-05-05 02:00:00 15.3 0 Calma 13 Sur 0 -- -- 91
2020-05-05 01:00:00 16.7 3 Nordeste 9 Oeste 0 -- -- 93
2020-05-05 00:00:00 16.7 7 Sur 12 Sur 0 -- -- 92
2020-05-04 23:00:00 17.2 4 Nordeste 9 Norte 0 -- -- 92
2020-05-04 22:00:00 17.6 2 Norte 6 Norte 0 -- -- 89
2020-05-04 21:00:00 19.4 3 Norte 10 Nordeste 0 -- -- 85
2020-05-04 20:00:00 22.1 3 Oeste 19 Oeste 0 -- -- 75
2020-05-04 19:00:00 25.5 5 Sur 31 Sur 0 -- -- 61
2020-05-04 18:00:00 25.8 12 Sur 26 Sur 0 -- -- 56
2020-05-04 17:00:00 26.1 13 Sudeste 30 Sur 0 -- -- 58
2020-05-04 16:00:00 23.8 6 Nordeste 15 Sudeste 0 -- -- 67
2020-05-04 15:00:00 23.5 11 Norte 18 Norte 0 -- -- 72
2020-05-04 14:00:00 22.8 8 Norte 18 Nordeste 0 -- -- 74
2020-05-04 13:00:00 22.3 9 Norte 16 Nordeste 0 -- -- 76
2020-05-04 12:00:00 21.7 9 Norte 14 Norte 0 -- -- 75
2020-05-04 11:00:00 20.2 9 Nordeste 13 Nordeste 0 -- -- 76
2020-05-04 10:00:00 18.7 5 Norte 11 Norte 0 -- -- 81
2020-05-04 09:00:00 15.3 3 Sur 5 Sudeste 0 -- -- 95
2020-05-04 08:00:00 12.8 0 Calma 8 Sur 0 -- -- 93
2020-05-04 07:00:00 13.2 5 Sur 8 Sur 0 -- -- 91
2020-05-04 06:00:00 13.3 5 Sur 10 Sur 0 -- -- 92
2020-05-04 05:00:00 13.3 5 Sur 8 Sudeste 0 -- -- 94
2020-05-04 04:00:00 13.7 3 Sur 6 Sur 0 -- -- 92
2020-05-04 03:00:00 14.8 0 Calma 7 Sur 0 -- -- 93
2020-05-04 02:00:00 15.5 3 Sur 6 Sur 0 -- -- 86
2020-05-04 01:00:00 16.6 4 Nordeste 9 Nordeste 0 -- -- 90
2020-05-04 00:00:00 16.5 3 Norte 6 Nordeste 0 -- -- 87
2020-05-03 23:00:00 17 0 Calma 4 Norte 0 -- -- 88
2020-05-03 22:00:00 18.9 2 Noroeste 10 Noroeste 0 -- -- 78
2020-05-03 21:00:00 20.5 2 Norte 10 Noroeste 0 -- -- 74
2020-05-03 20:00:00 24.8 4 Sudoeste 16 Sudeste 0 -- -- 60
2020-05-03 19:00:00 26.3 10 Sur 23 Sudeste 0 -- -- 46
2020-05-03 18:00:00 26.7 13 Sur 32 Sur 0 -- -- 43
2020-05-03 17:00:00 26.9 19 Sur 33 Sur 0 -- -- 42
2020-05-03 16:00:00 27.3 17 Sur 32 Sudeste 0 -- -- 42
2020-05-03 15:00:00 27.1 14 Sur 31 Sur 0 -- -- 45
2020-05-03 14:00:00 27.1 14 Sur 29 Sur 0 -- -- 45
2020-05-03 13:00:00 26.8 15 Sur 28 Sur 0 -- -- 49
2020-05-03 12:00:00 26.1 13 Sur 26 Sur 0 -- -- 50
2020-05-03 11:00:00 25.5 12 Sur 24 Sur 0 -- -- 50
2020-05-03 10:00:00 23.7 5 Sudeste 13 Sudoeste 0 -- -- 55
2020-05-03 09:00:00 19.4 6 Sudeste 16 Sudeste 0 -- -- 63
2020-05-03 08:00:00 15.7 4 Sur 12 Sur 0 -- -- 78
2020-05-03 07:00:00 15.1 4 Sur 10 Sur 0 -- -- 76
2020-05-03 06:00:00 15.6 2 Sudoeste 9 Sur 0 -- -- 78
2020-05-03 05:00:00 19.2 6 Sur 14 Sur 0 -- -- 57
2020-05-03 04:00:00 19.6 8 Sur 13 Sur 0 -- -- 55
2020-05-03 03:00:00 18.2 6 Sur 10 Sur 0 -- -- 60
2020-05-03 02:00:00 18.6 4 Sur 10 Sur 0 -- -- 63
2020-05-03 01:00:00 17.9 4 Sur 9 Sur 0 -- -- 65
2020-05-03 00:00:00 17.5 2 Sur 4 Sur 0 -- -- 73